createdAt,value
2023-04-15T00:02:33.278Z,35.80
2023-04-15T00:06:37.996Z,38.70
2023-04-15T00:10:44.339Z,38.40
2023-04-15T00:14:48.007Z,37.80
2023-04-15T00:18:51.966Z,42.40
2023-04-15T00:22:55.187Z,39.80
2023-04-15T00:26:58.994Z,37.00
2023-04-15T00:31:02.588Z,36.10
2023-04-15T00:35:06.392Z,36.20
2023-04-15T00:39:09.778Z,31.70
2023-04-15T00:43:13.083Z,32.60
2023-04-15T00:47:17.722Z,35.30
2023-04-15T00:51:21.103Z,30.10
2023-04-15T00:55:24.299Z,35.00
2023-04-15T00:59:28.029Z,30.40
2023-04-15T01:03:31.659Z,30.60
2023-04-15T01:07:35.354Z,25.30
2023-04-15T01:11:39.310Z,26.80
2023-04-15T01:15:42.955Z,26.30
2023-04-15T01:19:46.850Z,20.60
2023-04-15T01:23:52.611Z,21.00
2023-04-15T01:27:56.126Z,20.00
2023-04-15T01:31:59.603Z,17.80
2023-04-15T01:36:03.928Z,18.80
2023-04-15T01:40:08.181Z,15.50
2023-04-15T01:44:11.964Z,17.10
2023-04-15T01:48:15.346Z,12.60
2023-04-15T01:52:18.762Z,13.70
2023-04-15T01:56:22.099Z,11.50
2023-04-15T02:00:25.469Z,14.50
2023-04-15T02:04:29.174Z,11.70
2023-04-15T02:08:32.644Z,11.10
2023-04-15T02:12:36.512Z,10.50
2023-04-15T02:16:39.935Z,11.80
2023-04-15T02:20:47.137Z,11.60
2023-04-15T02:24:50.672Z,11.30
2023-04-15T02:28:54.091Z,9.80
2023-04-15T02:32:57.455Z,11.50
2023-04-15T02:37:00.923Z,11.00
2023-04-15T02:41:04.990Z,11.90
2023-04-15T02:45:08.962Z,11.40
2023-04-15T02:49:12.380Z,11.90
2023-04-15T02:53:15.894Z,9.80
2023-04-15T02:57:19.341Z,11.90
2023-04-15T03:01:22.722Z,9.40
2023-04-15T03:05:26.421Z,11.20
2023-04-15T03:09:29.870Z,12.70
2023-04-15T03:13:33.109Z,12.50
2023-04-15T03:17:36.678Z,10.20
2023-04-15T03:21:39.968Z,12.00
2023-04-15T03:25:43.259Z,11.30
2023-04-15T03:34:54.090Z,11.80
2023-04-15T03:53:43.154Z,12.20
2023-04-15T03:57:52.027Z,14.40
2023-04-15T04:15:17.292Z,2.50
2023-04-15T04:23:53.393Z,2.60
2023-04-15T04:27:59.060Z,3.10
2023-04-15T05:56:20.850Z,2.20
2023-04-15T06:05:37.997Z,1.70
2023-04-15T06:11:04.407Z,2.30
2023-04-15T06:19:30.033Z,1.90
2023-04-15T06:23:38.927Z,1.80
2023-04-15T06:27:43.357Z,2.10
2023-04-15T06:31:51.750Z,1.50
2023-04-15T06:35:57.434Z,2.00
2023-04-15T06:40:03.278Z,1.90
2023-04-15T06:44:09.009Z,2.00
2023-04-15T06:52:18.240Z,1.40
2023-04-15T07:33:18.292Z,1.80
2023-04-15T07:37:33.477Z,2.60
2023-04-15T07:41:50.467Z,1.10
2023-04-15T07:45:53.963Z,1.30
2023-04-15T07:54:37.472Z,1.60
2023-04-15T08:12:24.680Z,2.90
2023-04-15T08:35:28.027Z,1.30
2023-04-15T08:44:06.019Z,1.00
2023-04-15T08:48:13.112Z,1.40
2023-04-15T08:52:17.064Z,2.10
2023-04-15T08:56:29.016Z,1.30
2023-04-15T09:00:34.189Z,0.90
2023-04-15T09:04:37.496Z,0.80
2023-04-15T09:08:42.997Z,0.80
2023-04-15T09:12:46.211Z,1.50
2023-04-15T09:17:04.087Z,2.70
2023-04-15T09:21:11.361Z,2.60
2023-04-15T09:25:27.468Z,16.40
2023-04-15T09:29:30.754Z,15.40
2023-04-15T09:33:34.150Z,30.90
2023-04-15T09:37:37.576Z,5.50
2023-04-15T09:41:41.282Z,2.60
2023-04-15T09:45:53.638Z,1.20
2023-04-15T09:50:07.152Z,1.50
2023-04-15T09:54:13.804Z,0.70
2023-04-15T09:58:25.139Z,1.20
2023-04-15T10:02:30.833Z,1.10
2023-04-15T10:06:35.269Z,1.30
2023-04-15T10:10:48.625Z,1.00
2023-04-15T10:15:01.061Z,1.30
2023-04-15T10:19:07.262Z,0.60
2023-04-15T10:23:13.385Z,0.80
2023-04-15T10:27:18.113Z,1.30
2023-04-15T10:31:22.229Z,0.50
2023-04-15T10:35:25.672Z,1.20
2023-04-15T10:39:45.711Z,0.80
2023-04-15T10:43:53.983Z,1.00
2023-04-15T10:47:57.812Z,1.90
2023-04-15T10:52:01.560Z,0.80
2023-04-15T10:56:05.526Z,1.10
2023-04-15T11:00:09.218Z,0.70
2023-04-15T11:04:12.475Z,0.50
2023-04-15T11:08:16.433Z,0.70
2023-04-15T11:12:19.546Z,1.60
2023-04-15T11:16:23.085Z,0.50
2023-04-15T11:20:26.416Z,1.40
2023-04-15T11:29:18.628Z,15.90
2023-04-15T11:33:24.068Z,4.60
2023-04-15T11:37:32.432Z,1.40
2023-04-15T11:41:36.601Z,3.10
2023-04-15T11:46:01.212Z,7.60
2023-04-15T11:50:23.645Z,1.20
2023-04-15T11:54:26.886Z,7.60
2023-04-15T11:58:30.655Z,7.00
2023-04-15T12:02:37.258Z,6.20
2023-04-15T12:06:41.426Z,5.00
2023-04-15T12:10:44.438Z,2.00
2023-04-15T12:14:47.696Z,0.40
2023-04-15T12:18:59.095Z,0.70
2023-04-15T12:23:08.387Z,2.70
2023-04-15T12:27:12.787Z,1.10
2023-04-15T12:31:15.901Z,3.70
2023-04-15T12:35:21.720Z,2.20
2023-04-15T12:39:30.917Z,7.40
2023-04-15T12:43:34.174Z,7.10
2023-04-15T12:47:37.432Z,55.70
2023-04-15T12:51:41.152Z,38.20
2023-04-15T12:55:44.218Z,8.10
2023-04-15T12:59:48.234Z,2.80
2023-04-15T13:04:11.778Z,1.50
2023-04-15T13:08:15.813Z,0.60
2023-04-15T13:12:19.740Z,1.60
2023-04-15T13:16:23.963Z,1.40
2023-04-15T13:20:27.911Z,1.40
2023-04-15T13:24:31.275Z,4.40
2023-04-15T13:28:35.038Z,1.90
2023-04-15T13:32:38.499Z,1.20
2023-04-15T13:36:42.264Z,1.70
2023-04-15T13:45:07.872Z,4.70
2023-04-15T13:53:56.911Z,1.60
2023-04-15T13:57:59.869Z,1.80
2023-04-15T14:02:02.958Z,2.70
2023-04-15T14:06:08.807Z,1.00
2023-04-15T14:10:12.816Z,1.30
2023-04-15T14:14:18.531Z,0.50
2023-04-15T14:18:21.622Z,1.10
2023-04-15T14:22:24.697Z,1.10
2023-04-15T14:26:27.778Z,0.90
2023-04-15T14:30:31.039Z,1.30
2023-04-15T14:34:34.217Z,0.80
2023-04-15T14:38:38.814Z,1.20
2023-04-15T14:42:41.991Z,1.00
2023-04-15T14:46:45.183Z,1.00
2023-04-15T14:50:48.406Z,1.30
2023-04-15T14:54:51.391Z,0.80
2023-04-15T14:58:54.383Z,0.90
2023-04-15T15:02:57.425Z,0.80
2023-04-15T15:07:00.618Z,2.00
2023-04-15T15:11:04.000Z,1.00
2023-04-15T15:15:19.592Z,0.90
2023-04-15T15:19:31.073Z,1.40
2023-04-15T15:23:34.321Z,1.20
2023-04-15T15:27:38.318Z,1.00
2023-04-15T15:31:41.723Z,1.30
2023-04-15T15:35:45.194Z,1.60
2023-04-15T15:39:49.155Z,1.20
2023-04-15T15:43:53.562Z,0.90
2023-04-15T15:47:58.513Z,0.80
2023-04-15T15:52:01.605Z,1.40
2023-04-15T15:56:05.399Z,1.00
2023-04-15T16:00:12.793Z,0.60
2023-04-15T16:04:16.512Z,1.20
2023-04-15T16:08:20.918Z,2.30
2023-04-15T16:12:24.116Z,1.10
2023-04-15T16:16:27.808Z,1.40
2023-04-15T16:20:31.905Z,1.20
2023-04-15T16:24:35.244Z,1.50
2023-04-15T16:28:38.930Z,1.40
2023-04-15T16:32:42.759Z,0.90
2023-04-15T16:36:46.342Z,1.10
2023-04-15T16:40:49.711Z,1.30
2023-04-15T16:44:53.074Z,1.30
2023-04-15T16:48:56.383Z,0.90
2023-04-15T16:52:59.864Z,1.20
2023-04-15T16:57:03.585Z,0.70
2023-04-15T17:01:06.821Z,1.50
2023-04-15T17:05:10.055Z,1.80
2023-04-15T17:09:13.173Z,1.10
2023-04-15T17:13:16.181Z,0.70
2023-04-15T17:17:20.898Z,0.80
2023-04-15T17:21:24.049Z,1.50
2023-04-15T17:25:27.152Z,1.80
2023-04-15T17:29:30.503Z,2.50
2023-04-15T17:34:00.024Z,2.90
2023-04-15T17:37:56.717Z,4.80
2023-04-15T17:41:59.994Z,3.60
2023-04-15T17:46:03.114Z,5.40
2023-04-15T17:50:07.224Z,5.80
2023-04-15T17:54:10.652Z,23.40
2023-04-15T17:58:14.050Z,35.50
2023-04-15T18:02:17.453Z,24.20
2023-04-15T18:06:22.191Z,16.80
2023-04-15T18:10:25.360Z,11.50
2023-04-15T18:14:34.796Z,10.60
2023-04-15T18:18:38.477Z,10.90
2023-04-15T18:22:43.268Z,14.50
2023-04-15T18:26:48.991Z,19.20
2023-04-15T18:30:52.762Z,31.50
2023-04-15T18:34:56.592Z,38.40
2023-04-15T18:39:00.166Z,35.70
2023-04-15T18:43:03.603Z,19.60
2023-04-15T18:47:07.082Z,20.60
2023-04-15T18:51:10.604Z,15.80
2023-04-15T18:55:16.155Z,12.90
2023-04-15T18:59:30.008Z,21.40
2023-04-15T19:03:33.763Z,10.00
2023-04-15T19:07:37.567Z,8.20
2023-04-15T19:11:40.839Z,8.90
2023-04-15T19:15:44.172Z,8.00
2023-04-15T19:19:47.456Z,9.40
2023-04-15T19:23:50.852Z,18.20
2023-04-15T19:27:54.037Z,12.20
2023-04-15T19:31:57.436Z,10.30
2023-04-15T19:36:06.185Z,10.00
2023-04-15T19:40:10.040Z,8.90
2023-04-15T19:44:13.783Z,9.50
2023-04-15T19:48:17.427Z,8.50
2023-04-15T19:52:20.742Z,9.80
2023-04-15T19:56:24.281Z,9.40
2023-04-15T20:00:27.721Z,9.20
2023-04-15T20:04:31.434Z,7.80
2023-04-15T20:08:34.863Z,8.20
2023-04-15T20:12:51.258Z,6.60
2023-04-15T20:16:56.343Z,8.50
2023-04-15T20:21:00.097Z,7.40
2023-04-15T20:25:03.973Z,8.70
2023-04-15T20:29:07.658Z,8.40
2023-04-15T20:33:11.298Z,9.20
2023-04-15T20:37:14.524Z,10.40
2023-04-15T20:41:17.724Z,10.10
2023-04-15T20:45:21.139Z,10.60
2023-04-15T20:49:24.582Z,11.20
2023-04-15T20:53:27.861Z,13.90
2023-04-15T20:57:31.157Z,11.70
2023-04-15T21:01:34.338Z,12.40
2023-04-15T21:05:37.577Z,12.80
2023-04-15T21:09:43.164Z,12.80
2023-04-15T21:13:48.576Z,13.30
2023-04-15T21:17:51.929Z,13.80
2023-04-15T21:21:55.291Z,13.00
2023-04-15T21:25:59.175Z,13.70
2023-04-15T21:30:02.863Z,12.80
2023-04-15T21:34:06.211Z,14.00
2023-04-15T21:38:09.411Z,16.30
2023-04-15T21:42:12.624Z,11.30
2023-04-15T21:46:23.292Z,13.10
2023-04-15T21:50:28.585Z,19.60
2023-04-15T21:54:33.087Z,12.90
2023-04-15T21:58:36.857Z,16.00
2023-04-15T22:02:40.234Z,14.30
2023-04-15T22:06:43.589Z,17.20
2023-04-15T22:10:46.754Z,15.10
2023-04-15T22:14:50.046Z,15.30
2023-04-15T22:18:53.660Z,15.40
2023-04-15T22:22:56.874Z,14.90
2023-04-15T22:27:02.311Z,13.90
2023-04-15T22:31:06.205Z,14.10
2023-04-15T22:35:09.665Z,13.00
2023-04-15T22:39:12.899Z,15.50
2023-04-15T22:43:16.436Z,12.80
2023-04-15T22:47:20.931Z,13.70
2023-04-15T22:51:28.221Z,14.90
2023-04-15T22:55:32.106Z,13.50
2023-04-15T22:59:35.830Z,14.10
2023-04-15T23:03:56.226Z,12.70
2023-04-15T23:08:00.811Z,13.10
2023-04-15T23:12:04.381Z,12.90
2023-04-15T23:16:08.128Z,13.20
2023-04-15T23:20:12.290Z,14.80
2023-04-15T23:24:15.975Z,12.70
2023-04-15T23:28:19.416Z,12.70
2023-04-15T23:32:22.573Z,12.90
2023-04-15T23:36:26.114Z,12.60
2023-04-15T23:40:29.253Z,10.10
2023-04-15T23:44:32.717Z,13.70
2023-04-15T23:48:36.136Z,13.10
2023-04-15T23:52:39.628Z,12.20
2023-04-15T23:56:42.894Z,13.90
